createdAt,value
2022-08-26T00:01:44.301Z,16.20
2022-08-26T00:04:12.578Z,16.20
2022-08-26T00:06:42.737Z,16.30
2022-08-26T00:09:16.742Z,16.20
2022-08-26T00:11:45.362Z,16.20
2022-08-26T00:14:13.877Z,16.20
2022-08-26T00:16:47.326Z,16.20
2022-08-26T00:19:17.915Z,16.20
2022-08-26T00:21:46.060Z,16.10
2022-08-26T00:24:13.537Z,16.10
2022-08-26T00:26:41.507Z,16.10
2022-08-26T00:29:08.759Z,16.00
2022-08-26T00:31:36.595Z,16.00
2022-08-26T00:34:04.483Z,16.00
2022-08-26T00:36:32.030Z,16.00
2022-08-26T00:38:59.116Z,16.00
2022-08-26T00:41:26.046Z,15.90
2022-08-26T00:43:53.256Z,15.90
2022-08-26T00:46:34.120Z,15.90
2022-08-26T00:49:11.828Z,15.80
2022-08-26T00:51:49.437Z,15.80
2022-08-26T00:54:19.313Z,15.80
2022-08-26T00:57:15.814Z,15.80
2022-08-26T00:59:48.944Z,15.80
2022-08-26T01:02:20.916Z,15.80
2022-08-26T01:04:55.930Z,15.80
2022-08-26T01:07:26.094Z,15.70
2022-08-26T01:09:53.513Z,15.70
2022-08-26T01:12:21.964Z,15.70
2022-08-26T01:14:49.903Z,15.60
2022-08-26T01:17:17.512Z,15.60
2022-08-26T01:19:48.770Z,15.50
2022-08-26T01:22:43.405Z,15.50
2022-08-26T01:25:11.475Z,15.50
2022-08-26T01:27:38.728Z,15.50
2022-08-26T01:30:06.276Z,15.50
2022-08-26T01:32:33.678Z,15.50
2022-08-26T01:35:01.476Z,15.50
2022-08-26T01:37:34.395Z,15.40
2022-08-26T01:40:01.213Z,15.50
2022-08-26T01:42:28.676Z,15.40
2022-08-26T01:45:09.224Z,15.40
2022-08-26T01:47:37.820Z,15.30
2022-08-26T01:50:10.636Z,15.30
2022-08-26T01:52:41.392Z,15.30
2022-08-26T01:55:10.227Z,15.30
2022-08-26T01:57:37.546Z,15.30
2022-08-26T02:00:08.094Z,15.20
2022-08-26T02:02:34.985Z,15.20
2022-08-26T02:05:07.163Z,15.20
2022-08-26T02:07:34.380Z,15.20
2022-08-26T02:10:01.211Z,15.20
2022-08-26T02:12:28.300Z,15.20
2022-08-26T02:15:00.110Z,15.10
2022-08-26T02:17:35.072Z,15.00
2022-08-26T02:20:02.938Z,15.00
2022-08-26T02:22:31.635Z,15.00
2022-08-26T02:25:06.003Z,15.00
2022-08-26T02:27:35.318Z,15.00
2022-08-26T02:30:11.184Z,14.90
2022-08-26T02:32:38.357Z,14.90
2022-08-26T02:35:08.701Z,14.90
2022-08-26T02:37:36.216Z,14.80
2022-08-26T02:40:04.873Z,14.80
2022-08-26T02:42:31.665Z,14.80
2022-08-26T02:44:58.818Z,14.80
2022-08-26T02:47:25.749Z,14.70
2022-08-26T02:49:55.941Z,14.70
2022-08-26T02:52:22.860Z,14.70
2022-08-26T02:54:49.767Z,14.70
2022-08-26T02:57:17.229Z,14.70
2022-08-26T02:59:44.196Z,14.60
2022-08-26T03:02:12.281Z,14.60
2022-08-26T03:04:40.123Z,14.70
2022-08-26T03:07:07.062Z,14.60
2022-08-26T03:09:34.029Z,14.60
2022-08-26T03:12:01.333Z,14.60
2022-08-26T03:14:29.779Z,14.60
2022-08-26T03:16:56.589Z,14.50
2022-08-26T03:19:25.080Z,14.50
2022-08-26T03:21:52.960Z,14.50
2022-08-26T03:24:25.706Z,14.50
2022-08-26T03:26:53.141Z,14.40
2022-08-26T03:29:39.991Z,14.40
2022-08-26T03:32:07.475Z,14.30
2022-08-26T03:34:35.021Z,14.40
2022-08-26T03:37:02.402Z,14.30
2022-08-26T03:39:31.658Z,14.30
2022-08-26T03:41:59.823Z,14.30
2022-08-26T03:44:26.758Z,14.30
2022-08-26T03:46:54.536Z,14.20
2022-08-26T03:49:22.202Z,14.20
2022-08-26T03:51:49.001Z,14.20
2022-08-26T03:54:17.568Z,14.20
2022-08-26T03:56:46.613Z,14.10
2022-08-26T03:59:13.744Z,14.10
2022-08-26T04:01:40.899Z,14.10
2022-08-26T04:04:07.815Z,14.10
2022-08-26T04:06:38.875Z,14.10
2022-08-26T04:09:09.132Z,14.10
2022-08-26T04:11:39.262Z,14.10
2022-08-26T04:14:09.874Z,14.10
2022-08-26T04:16:37.059Z,14.00
2022-08-26T04:19:04.328Z,14.00
2022-08-26T04:21:31.605Z,14.00
2022-08-26T04:23:58.426Z,14.00
2022-08-26T04:26:25.655Z,14.00
2022-08-26T04:28:54.445Z,14.00
2022-08-26T04:31:21.853Z,14.00
2022-08-26T04:33:50.749Z,14.00
2022-08-26T04:36:19.964Z,14.00
2022-08-26T04:38:47.715Z,14.00
2022-08-26T04:41:34.489Z,14.00
2022-08-26T04:44:02.892Z,14.00
2022-08-26T04:46:32.823Z,14.00
2022-08-26T04:49:11.063Z,14.00
2022-08-26T04:51:38.572Z,13.90
2022-08-26T04:54:13.049Z,14.00
2022-08-26T04:56:44.302Z,14.00
2022-08-26T04:59:16.761Z,14.00
2022-08-26T05:01:53.942Z,14.10
2022-08-26T05:04:21.205Z,14.10
2022-08-26T05:06:49.502Z,14.10
2022-08-26T05:09:18.360Z,14.20
2022-08-26T05:11:48.604Z,14.20
2022-08-26T05:14:19.745Z,14.30
2022-08-26T05:16:47.803Z,14.40
2022-08-26T05:19:15.898Z,14.50
2022-08-26T05:21:46.390Z,14.50
2022-08-26T05:24:14.316Z,14.60
2022-08-26T05:26:41.414Z,14.60
2022-08-26T05:29:08.336Z,14.70
2022-08-26T05:31:35.734Z,14.70
2022-08-26T05:34:04.613Z,14.70
2022-08-26T05:36:34.428Z,14.70
2022-08-26T05:39:04.086Z,14.80
2022-08-26T05:41:38.434Z,14.90
2022-08-26T05:44:08.593Z,14.90
2022-08-26T05:46:37.325Z,15.00
2022-08-26T05:49:06.058Z,15.00
2022-08-26T05:51:40.325Z,15.10
2022-08-26T05:54:07.377Z,15.10
2022-08-26T05:56:38.368Z,15.20
2022-08-26T05:59:14.232Z,15.30
2022-08-26T06:01:42.349Z,15.30
2022-08-26T06:04:09.576Z,15.30
2022-08-26T06:06:37.411Z,15.40
2022-08-26T06:09:07.096Z,15.50
2022-08-26T06:11:37.796Z,15.60
2022-08-26T06:14:06.372Z,15.70
2022-08-26T06:16:38.574Z,15.80
2022-08-26T06:19:10.777Z,15.90
2022-08-26T06:21:40.203Z,16.00
2022-08-26T06:24:28.342Z,16.20
2022-08-26T06:26:58.026Z,16.30
2022-08-26T06:29:26.269Z,16.40
2022-08-26T06:31:56.283Z,16.60
2022-08-26T06:34:29.886Z,16.70
2022-08-26T06:37:02.503Z,16.80
2022-08-26T06:39:31.555Z,17.00
2022-08-26T06:41:59.684Z,17.20
2022-08-26T06:44:27.180Z,17.50
2022-08-26T06:46:54.140Z,17.80
2022-08-26T06:49:26.771Z,18.10
2022-08-26T06:52:00.737Z,18.30
2022-08-26T06:54:31.624Z,18.50
2022-08-26T06:56:59.061Z,18.90
2022-08-26T06:59:26.584Z,19.20
2022-08-26T07:01:54.654Z,19.50
2022-08-26T07:04:23.298Z,19.90
2022-08-26T07:06:52.607Z,20.20
2022-08-26T07:09:21.806Z,20.60
2022-08-26T07:11:49.196Z,21.00
2022-08-26T07:14:21.210Z,21.30
2022-08-26T07:16:49.185Z,21.60
2022-08-26T07:19:27.612Z,21.40
2022-08-26T07:21:57.707Z,21.50
2022-08-26T07:24:24.478Z,21.50
2022-08-26T07:26:59.690Z,21.60
2022-08-26T07:29:26.447Z,21.70
2022-08-26T07:31:54.047Z,21.70
2022-08-26T07:34:24.067Z,21.70
2022-08-26T07:36:51.599Z,21.80
2022-08-26T07:39:19.141Z,21.90
2022-08-26T07:41:47.310Z,22.00
2022-08-26T07:44:14.829Z,22.10
2022-08-26T07:46:42.196Z,22.10
2022-08-26T07:49:12.085Z,22.00
2022-08-26T07:51:40.250Z,22.30
2022-08-26T07:54:07.273Z,22.70
2022-08-26T07:56:34.088Z,23.00
2022-08-26T07:59:01.616Z,23.40
2022-08-26T08:01:31.467Z,23.60
2022-08-26T08:04:00.401Z,23.80
2022-08-26T08:06:29.304Z,24.20
2022-08-26T08:08:57.190Z,24.20
2022-08-26T08:11:27.220Z,24.30
2022-08-26T08:13:56.397Z,24.80
2022-08-26T08:16:25.141Z,25.30
2022-08-26T08:18:53.569Z,24.90
2022-08-26T08:21:21.868Z,24.90
2022-08-26T08:23:54.701Z,25.30
2022-08-26T08:26:22.437Z,25.50
2022-08-26T08:28:49.324Z,25.50
2022-08-26T08:31:54.348Z,25.30
2022-08-26T08:34:12.930Z,24.90
2022-08-26T08:36:39.822Z,25.10
2022-08-26T08:39:07.031Z,25.70
2022-08-26T08:41:57.133Z,25.90
2022-08-26T08:47:04.589Z,25.90
2022-08-26T08:49:34.205Z,26.10
2022-08-26T08:52:20.153Z,26.10
2022-08-26T08:54:46.958Z,26.50
2022-08-26T08:57:26.004Z,26.80
2022-08-26T09:00:07.254Z,27.30
2022-08-26T09:02:43.057Z,28.00
2022-08-26T09:05:40.219Z,28.10
2022-08-26T09:08:11.385Z,27.70
2022-08-26T09:10:38.288Z,27.70
2022-08-26T09:13:16.305Z,27.80
2022-08-26T09:15:58.585Z,28.50
2022-08-26T09:18:49.651Z,28.60
2022-08-26T09:21:18.690Z,28.90
2022-08-26T09:23:49.304Z,29.50
2022-08-26T09:26:25.951Z,29.50
2022-08-26T09:29:01.553Z,29.70
2022-08-26T09:31:34.203Z,30.20
2022-08-26T09:34:25.303Z,29.70
2022-08-26T09:36:56.289Z,29.00
2022-08-26T09:39:37.776Z,29.40
2022-08-26T09:42:23.218Z,28.50
2022-08-26T09:44:56.776Z,28.20
2022-08-26T09:47:30.161Z,28.10
2022-08-26T09:50:28.681Z,28.30
2022-08-26T09:53:21.116Z,28.70
2022-08-26T09:56:12.027Z,28.70
2022-08-26T09:58:41.993Z,29.30
2022-08-26T10:01:35.323Z,29.20
2022-08-26T10:04:24.213Z,28.80
2022-08-26T10:07:05.243Z,28.30
2022-08-26T10:09:40.531Z,28.20
2022-08-26T10:12:13.012Z,28.50
2022-08-26T10:17:30.763Z,29.90
2022-08-26T10:20:06.360Z,30.70
2022-08-26T10:23:05.537Z,30.80
2022-08-26T10:25:53.691Z,30.50
2022-08-26T10:28:57.461Z,30.70
2022-08-26T10:31:43.072Z,31.10
2022-08-26T10:34:12.372Z,31.50
2022-08-26T10:37:10.771Z,31.80
2022-08-26T10:39:57.257Z,31.60
2022-08-26T10:42:40.253Z,32.50
2022-08-26T10:45:25.350Z,32.00
2022-08-26T10:47:55.877Z,32.30
2022-08-26T10:50:26.118Z,32.00
2022-08-26T10:53:08.753Z,32.30
2022-08-26T10:55:35.577Z,33.00
2022-08-26T10:58:26.401Z,32.50
2022-08-26T11:01:42.889Z,32.10
2022-08-26T11:04:12.902Z,32.00
2022-08-26T11:06:40.398Z,31.90
2022-08-26T11:09:09.275Z,32.30
2022-08-26T11:11:41.921Z,33.00
2022-08-26T11:14:29.105Z,32.70
2022-08-26T11:16:58.706Z,31.60
2022-08-26T11:19:59.334Z,30.30
2022-08-26T11:22:27.382Z,30.20
2022-08-26T11:24:57.175Z,31.60
2022-08-26T11:27:27.132Z,32.30
2022-08-26T11:30:19.627Z,32.00
2022-08-26T11:32:51.448Z,31.10
2022-08-26T11:37:57.370Z,30.40
2022-08-26T11:40:29.491Z,30.10
2022-08-26T11:43:00.669Z,30.00
2022-08-26T11:45:38.098Z,30.00
2022-08-26T11:48:26.747Z,29.90
2022-08-26T11:51:21.656Z,28.80
2022-08-26T11:53:49.123Z,28.50
2022-08-26T11:56:36.674Z,29.40
2022-08-26T11:59:09.643Z,29.70
2022-08-26T12:01:39.847Z,28.70
2022-08-26T12:04:09.936Z,28.70
2022-08-26T12:06:46.510Z,27.90
2022-08-26T12:09:26.925Z,27.60
2022-08-26T12:12:08.701Z,27.40
2022-08-26T12:14:39.659Z,27.10
2022-08-26T12:17:19.314Z,27.20
2022-08-26T12:19:49.278Z,27.10
2022-08-26T12:22:32.416Z,26.80
2022-08-26T12:25:02.715Z,26.90
2022-08-26T12:27:32.652Z,26.80
2022-08-26T12:30:01.068Z,27.50
2022-08-26T12:32:30.332Z,28.70
2022-08-26T12:34:58.061Z,29.20
2022-08-26T12:37:26.668Z,29.20
2022-08-26T12:39:54.129Z,29.80
2022-08-26T12:42:23.135Z,29.60
2022-08-26T12:44:59.076Z,29.10
2022-08-26T12:47:35.191Z,28.50
2022-08-26T12:50:23.908Z,28.20
2022-08-26T12:53:21.967Z,28.50
2022-08-26T12:55:53.984Z,28.20
2022-08-26T12:58:33.526Z,28.00
2022-08-26T13:01:06.716Z,27.90
2022-08-26T13:03:54.492Z,27.70
2022-08-26T13:06:40.393Z,27.80
2022-08-26T13:09:09.906Z,27.60
2022-08-26T13:11:39.492Z,27.60
2022-08-26T13:14:23.772Z,27.50
2022-08-26T13:16:52.148Z,26.80
2022-08-26T13:19:22.057Z,26.60
2022-08-26T13:21:55.302Z,26.30
2022-08-26T13:24:30.729Z,26.20
2022-08-26T13:26:57.686Z,26.00
2022-08-26T13:29:25.245Z,25.80
2022-08-26T13:31:52.363Z,25.40
2022-08-26T13:34:21.887Z,25.10
2022-08-26T13:36:54.129Z,24.70
2022-08-26T13:39:22.591Z,24.40
2022-08-26T13:41:49.929Z,24.40
2022-08-26T13:44:17.335Z,24.30
2022-08-26T13:49:12.716Z,24.20
2022-08-26T13:51:39.899Z,24.10
2022-08-26T13:54:07.485Z,24.10
2022-08-26T13:56:35.510Z,24.20
2022-08-26T13:59:02.940Z,24.30
2022-08-26T14:01:31.299Z,24.30
2022-08-26T14:03:58.482Z,24.20
2022-08-26T14:06:25.820Z,24.20
2022-08-26T14:08:52.716Z,24.20
2022-08-26T14:11:19.810Z,24.10
2022-08-26T14:13:46.615Z,24.10
2022-08-26T14:16:24.312Z,24.10
2022-08-26T14:18:51.603Z,24.00
2022-08-26T14:21:18.835Z,24.00
2022-08-26T14:23:45.663Z,24.00
2022-08-26T14:26:28.549Z,23.90
2022-08-26T14:29:00.372Z,24.00
2022-08-26T14:31:29.683Z,23.90
2022-08-26T14:34:04.798Z,23.90
2022-08-26T14:36:32.370Z,24.00
2022-08-26T14:39:11.452Z,24.00
2022-08-26T14:41:53.975Z,24.00
2022-08-26T14:44:24.515Z,24.00
2022-08-26T14:46:52.887Z,24.00
2022-08-26T14:49:20.533Z,24.00
2022-08-26T14:51:47.640Z,23.90
2022-08-26T14:54:16.175Z,23.90
2022-08-26T14:56:51.901Z,24.00
2022-08-26T14:59:25.464Z,24.00
2022-08-26T15:01:52.991Z,24.00
2022-08-26T15:04:20.446Z,24.00
2022-08-26T15:06:47.790Z,24.00
2022-08-26T15:09:15.777Z,23.80
2022-08-26T15:11:47.794Z,23.80
2022-08-26T15:14:19.712Z,23.50
2022-08-26T15:16:53.815Z,23.30
2022-08-26T15:19:21.608Z,23.40
2022-08-26T15:21:49.103Z,23.20
2022-08-26T15:24:18.742Z,23.10
2022-08-26T15:26:46.750Z,23.10
2022-08-26T15:29:13.895Z,23.30
2022-08-26T15:31:40.848Z,23.30
2022-08-26T15:34:14.513Z,23.40
2022-08-26T15:36:44.897Z,23.40
2022-08-26T15:39:12.292Z,23.40
2022-08-26T15:41:39.403Z,23.30
2022-08-26T15:44:07.830Z,23.20
2022-08-26T15:46:35.615Z,23.10
2022-08-26T15:49:04.379Z,23.20
2022-08-26T15:51:35.429Z,23.40
2022-08-26T15:54:13.558Z,23.50
2022-08-26T15:56:40.387Z,23.50
2022-08-26T15:59:08.260Z,23.60
2022-08-26T16:01:35.632Z,23.70
2022-08-26T16:04:03.644Z,23.70
2022-08-26T16:06:33.313Z,23.60
2022-08-26T16:09:00.647Z,23.60
2022-08-26T16:11:28.447Z,23.70
2022-08-26T16:13:55.651Z,23.70
2022-08-26T16:16:23.138Z,23.70
2022-08-26T16:18:50.063Z,23.70
2022-08-26T16:21:19.426Z,23.70
2022-08-26T16:23:46.754Z,23.70
2022-08-26T16:26:26.067Z,23.70
2022-08-26T16:28:53.685Z,23.60
2022-08-26T16:31:21.593Z,23.50
2022-08-26T16:33:48.613Z,23.50
2022-08-26T16:36:16.338Z,23.50
2022-08-26T16:38:49.879Z,23.50
2022-08-26T16:41:17.668Z,23.60
2022-08-26T16:43:44.833Z,23.60
2022-08-26T16:46:14.097Z,23.50
2022-08-26T16:48:41.252Z,23.50
2022-08-26T16:51:12.582Z,23.40
2022-08-26T16:53:39.665Z,23.30
2022-08-26T16:56:06.703Z,23.20
2022-08-26T16:58:33.971Z,23.20
2022-08-26T17:01:01.237Z,23.10
2022-08-26T17:03:28.093Z,22.90
2022-08-26T17:05:54.884Z,22.80
2022-08-26T17:08:24.412Z,22.90
2022-08-26T17:10:56.223Z,22.80
2022-08-26T17:13:24.081Z,22.80
2022-08-26T17:16:02.264Z,22.70
2022-08-26T17:18:31.008Z,22.60
2022-08-26T17:21:02.477Z,22.60
2022-08-26T17:23:29.432Z,22.60
2022-08-26T17:25:56.277Z,22.50
2022-08-26T17:28:23.053Z,22.40
2022-08-26T17:30:49.914Z,22.50
2022-08-26T17:33:18.662Z,22.60
2022-08-26T17:35:48.989Z,22.50
2022-08-26T17:38:15.785Z,22.50
2022-08-26T17:40:42.569Z,22.40
2022-08-26T17:43:12.362Z,22.40
2022-08-26T17:45:40.520Z,22.30
2022-08-26T17:48:08.094Z,22.20
2022-08-26T17:50:35.635Z,22.10
2022-08-26T17:53:02.573Z,22.10
2022-08-26T17:55:29.351Z,22.00
2022-08-26T17:57:56.163Z,21.90
2022-08-26T18:00:26.584Z,21.80
2022-08-26T18:02:56.717Z,21.80
2022-08-26T18:05:23.883Z,21.70
2022-08-26T18:07:51.462Z,21.50
2022-08-26T18:10:20.432Z,21.50
2022-08-26T18:12:47.737Z,21.50
2022-08-26T18:15:18.381Z,21.50
2022-08-26T18:17:45.493Z,21.40
2022-08-26T18:20:15.536Z,21.30
2022-08-26T18:22:43.580Z,21.40
2022-08-26T18:25:11.917Z,21.30
2022-08-26T18:27:39.017Z,21.30
2022-08-26T18:30:13.423Z,21.20
2022-08-26T18:32:42.752Z,21.10
2022-08-26T18:35:10.376Z,21.10
2022-08-26T18:37:37.536Z,21.10
2022-08-26T18:40:06.762Z,21.00
2022-08-26T18:42:34.084Z,20.90
2022-08-26T18:45:01.152Z,20.80
2022-08-26T18:47:28.437Z,20.80
2022-08-26T18:49:55.215Z,20.70
2022-08-26T18:52:22.636Z,20.70
2022-08-26T18:54:50.981Z,20.60
2022-08-26T18:57:17.803Z,20.40
2022-08-26T18:59:44.586Z,20.20
2022-08-26T19:02:11.722Z,20.10
2022-08-26T19:04:38.714Z,20.00
2022-08-26T19:07:06.852Z,19.90
2022-08-26T19:09:33.888Z,19.70
2022-08-26T19:12:04.065Z,19.50
2022-08-26T19:14:31.924Z,19.40
2022-08-26T19:16:59.154Z,19.20
2022-08-26T19:19:25.986Z,19.10
2022-08-26T19:21:53.634Z,18.90
2022-08-26T19:24:21.288Z,18.80
2022-08-26T19:26:51.365Z,18.80
2022-08-26T19:29:26.782Z,18.80
2022-08-26T19:31:53.564Z,18.70
2022-08-26T19:34:20.951Z,18.70
2022-08-26T19:36:48.543Z,18.60
2022-08-26T19:39:15.433Z,18.60
2022-08-26T19:41:42.266Z,18.50
2022-08-26T19:44:13.090Z,18.40
2022-08-26T19:46:40.272Z,18.40
2022-08-26T19:49:07.189Z,18.50
2022-08-26T19:51:35.505Z,18.50
2022-08-26T19:54:02.771Z,18.50
2022-08-26T19:56:29.889Z,18.40
2022-08-26T19:58:57.303Z,18.40
2022-08-26T20:01:24.934Z,18.40
2022-08-26T20:03:51.980Z,18.40
2022-08-26T20:06:20.052Z,18.40
2022-08-26T20:08:50.836Z,18.40
2022-08-26T20:11:20.754Z,18.50
2022-08-26T20:13:48.004Z,18.40
2022-08-26T20:16:16.216Z,18.30
2022-08-26T20:19:02.890Z,18.30
2022-08-26T20:21:34.114Z,18.40
2022-08-26T20:24:10.904Z,18.10
2022-08-26T20:26:39.548Z,18.10
2022-08-26T20:29:07.931Z,18.10
2022-08-26T20:31:35.493Z,18.10
2022-08-26T20:34:03.061Z,18.00
2022-08-26T20:36:30.167Z,17.80
2022-08-26T20:38:57.817Z,17.60
2022-08-26T20:41:25.747Z,17.60
2022-08-26T20:43:53.285Z,17.60
2022-08-26T20:46:24.488Z,17.50
2022-08-26T20:48:52.909Z,17.60
2022-08-26T20:51:21.008Z,17.50
2022-08-26T20:53:47.854Z,17.50
2022-08-26T20:56:16.383Z,17.50
2022-08-26T20:58:43.216Z,17.50
2022-08-26T21:01:20.695Z,17.50
2022-08-26T21:03:50.451Z,17.60
2022-08-26T21:06:17.285Z,17.60
2022-08-26T21:08:45.150Z,17.60
2022-08-26T21:11:12.480Z,17.50
2022-08-26T21:14:01.652Z,17.50
2022-08-26T21:16:26.547Z,17.50
2022-08-26T21:18:53.580Z,17.50
2022-08-26T21:21:25.227Z,17.60
2022-08-26T21:23:52.302Z,17.40
2022-08-26T21:26:19.417Z,17.40
2022-08-26T21:28:46.598Z,17.40
2022-08-26T21:31:16.642Z,17.40
2022-08-26T21:33:43.513Z,17.50
2022-08-26T21:36:11.328Z,17.50
2022-08-26T21:38:39.012Z,17.60
2022-08-26T21:41:09.052Z,17.50
2022-08-26T21:43:36.832Z,17.50
2022-08-26T21:46:14.353Z,17.60
2022-08-26T21:48:50.926Z,17.60
2022-08-26T21:51:19.558Z,17.60
2022-08-26T21:53:46.455Z,17.40
2022-08-26T21:56:15.896Z,17.30
2022-08-26T21:58:42.969Z,17.30
2022-08-26T22:01:12.123Z,17.30
2022-08-26T22:03:47.623Z,17.30
2022-08-26T22:06:17.512Z,17.20
2022-08-26T22:08:44.316Z,17.20
2022-08-26T22:11:11.182Z,17.20
2022-08-26T22:13:40.162Z,17.20
2022-08-26T22:16:08.024Z,17.10
2022-08-26T22:18:35.987Z,17.10
2022-08-26T22:21:06.631Z,17.10
2022-08-26T22:23:35.209Z,17.10
2022-08-26T22:26:02.400Z,17.20
2022-08-26T22:28:29.269Z,17.20
2022-08-26T22:30:56.056Z,17.20
2022-08-26T22:33:23.375Z,17.20
2022-08-26T22:35:51.945Z,17.30
2022-08-26T22:38:20.040Z,17.30
2022-08-26T22:40:50.361Z,17.20
2022-08-26T22:43:18.892Z,17.30
2022-08-26T22:45:48.320Z,17.30
2022-08-26T22:48:17.750Z,17.30
2022-08-26T22:50:46.665Z,17.20
2022-08-26T22:53:14.239Z,17.20
2022-08-26T22:55:41.407Z,17.20
2022-08-26T22:58:08.293Z,17.20
2022-08-26T23:00:35.133Z,17.20
2022-08-26T23:03:03.034Z,17.20
2022-08-26T23:05:30.877Z,17.20
2022-08-26T23:07:58.657Z,17.10
2022-08-26T23:10:25.824Z,17.10
2022-08-26T23:12:53.476Z,17.00
2022-08-26T23:15:21.292Z,17.00
2022-08-26T23:17:58.432Z,16.90
2022-08-26T23:20:27.252Z,16.90
2022-08-26T23:22:54.897Z,16.80
2022-08-26T23:25:22.849Z,16.80
2022-08-26T23:27:52.123Z,16.90
2022-08-26T23:30:22.376Z,16.90
2022-08-26T23:32:49.412Z,16.90
2022-08-26T23:35:20.488Z,16.80
2022-08-26T23:37:52.997Z,16.90
2022-08-26T23:40:29.019Z,16.80
2022-08-26T23:42:57.552Z,16.70
2022-08-26T23:45:25.395Z,16.80
2022-08-26T23:47:53.113Z,16.90
2022-08-26T23:50:22.371Z,16.90
2022-08-26T23:53:21.904Z,16.80
2022-08-26T23:55:51.986Z,16.80
2022-08-26T23:58:21.235Z,16.80
